Time;durP1;ratioP1;P1;durP2;ratioP2;P2;SDS_P1;SDS_P2;PMS_P1;PMS_P2;Temp;Humidity;BMP_temperature;BMP_pressure;BME280_temperature;BME280_humidity;BME280_pressure;Samples;Min_cycle;Max_cycle;Signal;HPM_P1;HPM_P2
2021/09/29 00:02:00;;;;;;;;;;;15.70;89.00;;;;;;4315875;33;42943;-82
2021/09/29 00:04:27;;;;;;;;;;;15.60;89.00;;;;;;4315159;33;44200;-81
2021/09/29 00:06:55;;;;;;;;;;;15.60;89.20;;;;;;4315788;33;43320;-81
2021/09/29 00:09:25;;;;;;;;;;;15.60;89.30;;;;;;4303040;33;44282;-81
2021/09/29 00:11:52;;;;;;;;;;;15.60;89.40;;;;;;4316235;33;43981;-81
2021/09/29 00:14:22;;;;;;;;;;;15.50;89.40;;;;;;4314640;33;43042;-82
2021/09/29 00:16:51;;;;;;;;;;;15.50;89.60;;;;;;4302939;33;44182;-82
2021/09/29 00:19:19;;;;;;;;;;;15.50;89.60;;;;;;4315766;33;43569;-82
2021/09/29 00:21:46;;;;;;;;;;;15.50;89.70;;;;;;4316241;33;43965;-82
2021/09/29 00:24:13;;;;;;;;;;;15.40;89.80;;;;;;4315835;33;43188;-82
2021/09/29 00:26:41;;;;;;;;;;;15.40;89.80;;;;;;4315780;33;43177;-81
2021/09/29 00:29:08;;;;;;;;;;;15.40;89.90;;;;;;4315191;33;43323;-81
2021/09/29 00:31:37;;;;;;;;;;;15.30;90.00;;;;;;4316015;33;43986;-81
2021/09/29 00:36:36;;;;;;;;;;;15.20;90.10;;;;;;4315540;33;44935;-81
2021/09/29 00:39:03;;;;;;;;;;;15.20;90.10;;;;;;4315568;33;44816;-82
2021/09/29 00:41:31;;;;;;;;;;;15.20;90.10;;;;;;4315963;33;44593;-81
2021/09/29 00:44:00;;;;;;;;;;;15.10;90.20;;;;;;4315720;33;42882;-81
2021/09/29 00:46:30;;;;;;;;;;;15.10;90.20;;;;;;4314873;33;44015;-81
2021/09/29 00:48:57;;;;;;;;;;;15.10;90.30;;;;;;4315332;33;43949;-82
2021/09/29 00:51:25;;;;;;;;;;;15.00;90.30;;;;;;4315522;33;42634;-81
2021/09/29 00:53:53;;;;;;;;;;;15.00;90.30;;;;;;4302469;33;43458;-82
2021/09/29 00:56:20;;;;;;;;;;;15.00;90.30;;;;;;4302261;33;43236;-81
2021/09/29 00:58:48;;;;;;;;;;;15.00;90.30;;;;;;4315295;33;43275;-81
2021/09/29 01:01:16;;;;;;;;;;;15.00;90.40;;;;;;4315053;33;43249;-81
2021/09/29 01:03:45;;;;;;;;;;;15.00;90.40;;;;;;4302477;33;42611;-81
2021/09/29 01:06:17;;;;;;;;;;;15.00;90.40;;;;;;4315458;33;42963;-81
2021/09/29 01:08:51;;;;;;;;;;;14.90;90.40;;;;;;4315249;33;44839;-81
2021/09/29 01:11:31;;;;;;;;;;;14.90;90.40;;;;;;4316015;33;44195;-82
2021/09/29 01:14:01;;;;;;;;;;;14.90;90.40;;;;;;4302764;33;45644;-81
2021/09/29 01:16:30;;;;;;;;;;;14.90;90.40;;;;;;4302168;33;42604;-81
2021/09/29 01:19:01;;;;;;;;;;;14.90;90.30;;;;;;4302561;33;43215;-81
2021/09/29 01:21:32;;;;;;;;;;;14.90;90.30;;;;;;4315825;33;43840;-82
2021/09/29 01:24:32;;;;;;;;;;;14.90;90.40;;;;;;4315231;33;42927;-81
2021/09/29 01:27:00;;;;;;;;;;;14.90;90.40;;;;;;4289926;33;44079;-81
2021/09/29 01:29:27;;;;;;;;;;;14.90;90.40;;;;;;4315153;33;44336;-81
2021/09/29 01:31:54;;;;;;;;;;;14.90;90.40;;;;;;4315309;33;43800;-81
2021/09/29 01:34:24;;;;;;;;;;;14.80;90.40;;;;;;4302740;33;42515;-81
2021/09/29 01:36:52;;;;;;;;;;;14.80;90.40;;;;;;4314103;33;42796;-81
2021/09/29 01:39:25;;;;;;;;;;;14.80;90.40;;;;;;4302582;33;43949;-82
2021/09/29 01:41:52;;;;;;;;;;;14.80;90.50;;;;;;4316562;33;42582;-81
2021/09/29 01:44:19;;;;;;;;;;;14.80;90.40;;;;;;4304999;33;44215;-81
2021/09/29 01:46:46;;;;;;;;;;;14.80;90.50;;;;;;4304846;33;43866;-81
2021/09/29 01:49:19;;;;;;;;;;;14.70;90.50;;;;;;4317704;33;44215;-81
2021/09/29 01:51:49;;;;;;;;;;;14.70;90.50;;;;;;4304613;33;43473;-81
2021/09/29 01:54:17;;;;;;;;;;;14.70;90.50;;;;;;4317711;33;44008;-81
2021/09/29 01:56:44;;;;;;;;;;;14.70;90.60;;;;;;4305083;33;44988;-81
2021/09/29 01:59:12;;;;;;;;;;;14.60;90.60;;;;;;4317852;33;43947;-81
2021/09/29 02:01:40;;;;;;;;;;;14.60;90.60;;;;;;4317557;33;42359;-81
2021/09/29 02:04:09;;;;;;;;;;;14.60;90.70;;;;;;4318105;33;43931;-81
2021/09/29 02:06:52;;;;;;;;;;;14.60;90.70;;;;;;4317403;33;43019;-81
2021/09/29 02:09:20;;;;;;;;;;;14.60;90.70;;;;;;4317838;33;44028;-82
2021/09/29 02:11:47;;;;;;;;;;;14.60;90.70;;;;;;4317418;33;42911;-81
2021/09/29 02:14:17;;;;;;;;;;;14.60;90.70;;;;;;4317340;33;42765;-81
2021/09/29 02:16:46;;;;;;;;;;;14.60;90.70;;;;;;4316802;33;44175;-80
2021/09/29 02:19:19;;;;;;;;;;;14.60;90.70;;;;;;4304115;33;43150;-81
2021/09/29 02:21:46;;;;;;;;;;;14.50;90.70;;;;;;4317943;33;44235;-81
2021/09/29 02:24:13;;;;;;;;;;;14.50;90.80;;;;;;4317213;33;42779;-80
2021/09/29 02:26:41;;;;;;;;;;;14.50;90.80;;;;;;4317235;33;43911;-82
2021/09/29 02:29:09;;;;;;;;;;;14.50;90.80;;;;;;4304434;33;45880;-82
2021/09/29 02:31:39;;;;;;;;;;;14.50;90.80;;;;;;4317242;33;43046;-81
2021/09/29 02:34:09;;;;;;;;;;;14.50;90.80;;;;;;4316564;33;44030;-81
2021/09/29 02:36:36;;;;;;;;;;;14.50;90.80;;;;;;4317541;33;45219;-81
2021/09/29 02:39:04;;;;;;;;;;;14.50;90.80;;;;;;4316957;33;43084;-81
2021/09/29 02:41:31;;;;;;;;;;;14.50;90.90;;;;;;4304219;33;43347;-82
2021/09/29 02:43:59;;;;;;;;;;;14.50;90.80;;;;;;4317010;33;44185;-82
2021/09/29 02:46:26;;;;;;;;;;;14.50;90.90;;;;;;4317045;33;43902;-81
2021/09/29 02:48:53;;;;;;;;;;;14.50;90.90;;;;;;4317314;33;43562;-81
2021/09/29 02:51:20;;;;;;;;;;;14.50;90.90;;;;;;4316910;33;44286;-81
2021/09/29 02:53:47;;;;;;;;;;;14.50;90.90;;;;;;4315667;33;42185;-82
2021/09/29 02:56:14;;;;;;;;;;;14.50;90.90;;;;;;4304100;33;43938;-81
2021/09/29 02:58:42;;;;;;;;;;;14.50;90.90;;;;;;4315748;33;43174;-81
2021/09/29 03:01:09;;;;;;;;;;;14.50;90.90;;;;;;4315389;33;44846;-82
2021/09/29 03:03:39;;;;;;;;;;;14.40;90.90;;;;;;4304182;33;44206;-81
2021/09/29 03:06:06;;;;;;;;;;;14.40;90.90;;;;;;4316127;33;44257;-81
2021/09/29 03:08:33;;;;;;;;;;;14.50;90.90;;;;;;4317070;33;43474;-81
2021/09/29 03:11:00;;;;;;;;;;;14.40;90.90;;;;;;4303857;33;44196;-81
2021/09/29 03:13:28;;;;;;;;;;;14.40;91.00;;;;;;4316647;33;42469;-81
2021/09/29 03:15:55;;;;;;;;;;;14.40;91.20;;;;;;4316820;33;42593;-82
2021/09/29 03:18:22;;;;;;;;;;;14.40;91.00;;;;;;4303996;33;43492;-81
2021/09/29 03:20:49;;;;;;;;;;;14.40;91.10;;;;;;4303668;33;44803;-81
2021/09/29 03:23:16;;;;;;;;;;;14.40;91.10;;;;;;4315313;33;43423;-82
2021/09/29 03:25:43;;;;;;;;;;;14.40;91.10;;;;;;4316371;33;43335;-81
2021/09/29 03:28:10;;;;;;;;;;;14.40;91.10;;;;;;4316796;33;43490;-81
2021/09/29 03:30:38;;;;;;;;;;;14.30;91.10;;;;;;4316456;33;42862;-83
2021/09/29 03:33:07;;;;;;;;;;;14.30;91.10;;;;;;4303184;33;43124;-82
2021/09/29 03:35:34;;;;;;;;;;;14.40;91.10;;;;;;4315511;33;42981;-82
2021/09/29 03:38:04;;;;;;;;;;;14.40;91.10;;;;;;4315533;33;42654;-81
2021/09/29 03:40:31;;;;;;;;;;;14.40;91.20;;;;;;4315202;33;43822;-82
2021/09/29 03:42:58;;;;;;;;;;;14.40;91.10;;;;;;4316275;33;44099;-82
2021/09/29 03:45:25;;;;;;;;;;;14.40;91.10;;;;;;4316235;33;42484;-82
2021/09/29 03:47:52;;;;;;;;;;;14.40;91.20;;;;;;4303392;33;43374;-82
2021/09/29 03:50:20;;;;;;;;;;;14.40;91.20;;;;;;4316404;33;43517;-81
2021/09/29 03:52:47;;;;;;;;;;;14.40;91.20;;;;;;4316035;33;43623;-81
2021/09/29 03:55:17;;;;;;;;;;;14.40;91.20;;;;;;4316076;33;44269;-82
2021/09/29 03:57:44;;;;;;;;;;;14.40;91.20;;;;;;4316210;33;43013;-82
2021/09/29 04:00:12;;;;;;;;;;;14.40;91.20;;;;;;4302647;33;44073;-81
2021/09/29 04:02:40;;;;;;;;;;;14.40;91.20;;;;;;4315983;33;44042;-82
2021/09/29 04:05:08;;;;;;;;;;;14.40;91.30;;;;;;4315238;33;43396;-81
2021/09/29 04:07:35;;;;;;;;;;;14.40;91.30;;;;;;4314813;33;42950;-82
2021/09/29 04:10:04;;;;;;;;;;;14.40;91.30;;;;;;4308911;33;44330;-80
2021/09/29 04:12:33;;;;;;;;;;;14.40;91.40;;;;;;4314683;33;42998;-81
2021/09/29 04:15:00;;;;;;;;;;;14.40;91.40;;;;;;4302694;33;42581;-82
2021/09/29 04:17:27;;;;;;;;;;;14.40;91.40;;;;;;4302623;33;42866;-81
2021/09/29 04:19:57;;;;;;;;;;;14.40;91.40;;;;;;4315597;33;42477;-82
2021/09/29 04:22:27;;;;;;;;;;;14.40;91.50;;;;;;4314847;33;43753;-81
2021/09/29 04:24:55;;;;;;;;;;;14.40;91.40;;;;;;4314616;33;43485;-79
2021/09/29 04:27:22;;;;;;;;;;;14.40;91.50;;;;;;4316147;33;43190;-81
2021/09/29 04:29:49;;;;;;;;;;;14.40;91.50;;;;;;4303009;33;45874;-81
2021/09/29 04:32:16;;;;;;;;;;;14.40;91.50;;;;;;4314573;33;42430;-80
2021/09/29 04:34:43;;;;;;;;;;;14.40;91.50;;;;;;4315971;33;44212;-80
2021/09/29 04:37:11;;;;;;;;;;;14.40;91.60;;;;;;4316171;33;43477;-80
2021/09/29 04:39:38;;;;;;;;;;;14.40;91.50;;;;;;4316048;33;44341;-80
2021/09/29 04:42:10;;;;;;;;;;;14.40;91.60;;;;;;4314674;33;43589;-81
2021/09/29 04:44:37;;;;;;;;;;;14.40;91.60;;;;;;4314548;33;43327;-80
2021/09/29 04:47:06;;;;;;;;;;;14.40;91.60;;;;;;4315375;33;43318;-80
2021/09/29 04:49:36;;;;;;;;;;;14.40;91.70;;;;;;4314385;33;45711;-81
2021/09/29 04:52:03;;;;;;;;;;;14.40;91.70;;;;;;4314875;33;43415;-81
2021/09/29 04:54:30;;;;;;;;;;;14.40;91.70;;;;;;4315808;33;44126;-82
2021/09/29 04:56:57;;;;;;;;;;;14.40;91.70;;;;;;4315426;33;44125;-81
2021/09/29 04:59:24;;;;;;;;;;;14.40;91.70;;;;;;4302307;33;43074;-81
2021/09/29 05:01:53;;;;;;;;;;;14.40;91.70;;;;;;4302320;33;43242;-81
2021/09/29 05:04:25;;;;;;;;;;;14.40;91.70;;;;;;4315290;33;42852;-80
2021/09/29 05:06:55;;;;;;;;;;;14.40;91.70;;;;;;4316111;33;43873;-80
2021/09/29 05:09:24;;;;;;;;;;;14.40;91.70;;;;;;4302648;33;43345;-80
2021/09/29 05:11:59;;;;;;;;;;;14.40;91.70;;;;;;4314594;33;43008;-81
2021/09/29 05:14:26;;;;;;;;;;;14.40;91.70;;;;;;4315303;33;44175;-81
2021/09/29 05:16:53;;;;;;;;;;;14.40;91.70;;;;;;4318489;33;43219;-82
2021/09/29 05:19:20;;;;;;;;;;;14.40;91.80;;;;;;4304989;33;43527;-81
2021/09/29 05:21:47;;;;;;;;;;;14.40;91.80;;;;;;4318289;33;42318;-81
2021/09/29 05:24:14;;;;;;;;;;;14.30;91.80;;;;;;4316927;33;44107;-81
2021/09/29 05:26:41;;;;;;;;;;;14.30;91.80;;;;;;4318078;33;43220;-81
2021/09/29 05:29:10;;;;;;;;;;;14.30;91.90;;;;;;4304770;33;44522;-81
2021/09/29 05:31:38;;;;;;;;;;;14.30;91.90;;;;;;4318094;33;43907;-82
2021/09/29 05:34:05;;;;;;;;;;;14.30;91.90;;;;;;4304776;33;42999;-81
2021/09/29 05:36:32;;;;;;;;;;;14.30;91.90;;;;;;4317938;33;42992;-81
2021/09/29 05:38:59;;;;;;;;;;;14.30;92.30;;;;;;4317242;33;43107;-81
2021/09/29 05:41:27;;;;;;;;;;;14.30;91.90;;;;;;4318264;33;42811;-84
2021/09/29 05:43:54;;;;;;;;;;;14.30;92.00;;;;;;4316683;33;42863;-83
2021/09/29 05:46:21;;;;;;;;;;;14.30;92.00;;;;;;4318105;33;43271;-82
2021/09/29 05:48:48;;;;;;;;;;;14.30;92.00;;;;;;4317885;33;44289;-79
2021/09/29 05:51:15;;;;;;;;;;;14.30;92.10;;;;;;4305094;33;42886;-78
2021/09/29 05:53:47;;;;;;;;;;;14.30;92.20;;;;;;4318081;33;42149;-79
2021/09/29 05:56:16;;;;;;;;;;;14.30;92.40;;;;;;4318040;33;44233;-79
2021/09/29 05:58:43;;;;;;;;;;;14.20;92.40;;;;;;4318198;33;43966;-79
2021/09/29 06:01:10;;;;;;;;;;;14.20;92.50;;;;;;4317419;33;42923;-79
2021/09/29 06:03:40;;;;;;;;;;;14.20;92.50;;;;;;4305161;33;43096;-78
2021/09/29 06:06:09;;;;;;;;;;;14.20;92.70;;;;;;4317578;33;43240;-81
2021/09/29 06:08:39;;;;;;;;;;;14.20;92.70;;;;;;4304718;33;42837;-81
2021/09/29 06:11:06;;;;;;;;;;;14.10;92.80;;;;;;4317828;33;46034;-80
2021/09/29 06:13:33;;;;;;;;;;;14.10;92.70;;;;;;4317668;33;44283;-81
2021/09/29 06:16:07;;;;;;;;;;;14.10;92.70;;;;;;4316693;33;43392;-80
2021/09/29 06:18:37;;;;;;;;;;;14.10;92.80;;;;;;4316799;33;42839;-81
2021/09/29 06:21:04;;;;;;;;;;;14.10;92.90;;;;;;4317566;33;42962;-83
2021/09/29 06:23:35;;;;;;;;;;;14.10;92.90;;;;;;4304102;33;42065;-79
2021/09/29 06:26:07;;;;;;;;;;;14.10;93.10;;;;;;4316590;33;42819;-79
2021/09/29 06:28:37;;;;;;;;;;;14.00;93.10;;;;;;4316059;33;44996;-80
2021/09/29 06:31:07;;;;;;;;;;;14.10;93.10;;;;;;4304453;33;43887;-80
2021/09/29 06:33:34;;;;;;;;;;;14.00;93.20;;;;;;4317143;33;42858;-81
2021/09/29 06:36:02;;;;;;;;;;;14.00;93.40;;;;;;4305203;33;20009;-81
2021/09/29 06:38:30;;;;;;;;;;;14.00;93.40;;;;;;4316196;33;43266;-81
2021/09/29 06:41:00;;;;;;;;;;;14.00;93.50;;;;;;4304069;33;42604;-80
2021/09/29 06:43:27;;;;;;;;;;;14.00;93.50;;;;;;4316203;33;43610;-80
2021/09/29 06:45:54;;;;;;;;;;;14.00;93.70;;;;;;4317009;33;43033;-81
2021/09/29 06:48:21;;;;;;;;;;;13.90;93.80;;;;;;4317202;33;42700;-80
2021/09/29 06:50:48;;;;;;;;;;;13.90;93.80;;;;;;4316789;33;42884;-82
2021/09/29 06:53:19;;;;;;;;;;;14.00;93.80;;;;;;4316891;33;44166;-80
2021/09/29 06:55:46;;;;;;;;;;;13.90;93.80;;;;;;4315851;33;42505;-80
2021/09/29 06:58:15;;;;;;;;;;;13.90;94.00;;;;;;4305396;33;20040;-81
2021/09/29 07:00:42;;;;;;;;;;;13.90;93.90;;;;;;4303872;33;42342;-81
2021/09/29 07:03:09;;;;;;;;;;;14.00;94.10;;;;;;4316747;33;42850;-80
2021/09/29 07:05:39;;;;;;;;;;;13.90;94.00;;;;;;4316789;33;42450;-80
2021/09/29 07:08:06;;;;;;;;;;;13.90;93.90;;;;;;4316761;33;44883;-80
2021/09/29 07:10:34;;;;;;;;;;;14.00;93.90;;;;;;4316840;33;46041;-80
2021/09/29 07:13:04;;;;;;;;;;;14.00;93.90;;;;;;4316925;33;43099;-80
2021/09/29 07:15:34;;;;;;;;;;;14.00;93.80;;;;;;4303400;33;43910;-81
2021/09/29 07:18:17;;;;;;;;;;;14.00;93.80;;;;;;4315622;33;43462;-81
2021/09/29 07:20:49;;;;;;;;;;;14.10;94.00;;;;;;4304730;33;39060;-80
2021/09/29 07:23:16;;;;;;;;;;;14.10;93.90;;;;;;4316322;33;43143;-81
2021/09/29 07:25:46;;;;;;;;;;;14.10;93.90;;;;;;4316618;33;44243;-81
2021/09/29 07:28:13;;;;;;;;;;;14.10;93.80;;;;;;4315657;33;43298;-80
2021/09/29 07:30:46;;;;;;;;;;;14.10;93.80;;;;;;4315887;33;43248;-80
2021/09/29 07:33:17;;;;;;;;;;;14.10;93.80;;;;;;4303200;33;44251;-81
2021/09/29 07:35:45;;;;;;;;;;;14.10;93.80;;;;;;4316571;33;45504;-79
2021/09/29 07:38:19;;;;;;;;;;;14.20;93.90;;;;;;4316734;33;43241;-80
2021/09/29 07:40:46;;;;;;;;;;;14.20;93.80;;;;;;4303345;33;43910;-81
2021/09/29 07:43:14;;;;;;;;;;;14.20;93.80;;;;;;4316122;33;45019;-79
2021/09/29 07:45:44;;;;;;;;;;;14.10;93.80;;;;;;4316452;33;42731;-80
2021/09/29 07:48:11;;;;;;;;;;;14.20;93.80;;;;;;4315861;33;44235;-81
2021/09/29 07:50:40;;;;;;;;;;;14.20;93.80;;;;;;4316060;33;43872;-80
2021/09/29 07:53:08;;;;;;;;;;;14.20;93.80;;;;;;4316396;33;44255;-81
2021/09/29 07:55:36;;;;;;;;;;;14.10;93.70;;;;;;4303311;33;43402;-80
2021/09/29 07:58:03;;;;;;;;;;;14.10;93.80;;;;;;4315037;33;43363;-80
2021/09/29 08:00:30;;;;;;;;;;;14.10;93.80;;;;;;4315149;33;42975;-81
2021/09/29 08:02:58;;;;;;;;;;;14.20;93.90;;;;;;4315789;33;43791;-79
2021/09/29 08:05:25;;;;;;;;;;;14.10;93.80;;;;;;4315473;33;43510;-81
2021/09/29 08:07:58;;;;;;;;;;;14.10;93.80;;;;;;4315894;33;44216;-79
2021/09/29 08:10:27;;;;;;;;;;;14.10;93.80;;;;;;4316207;33;44288;-79
2021/09/29 08:13:01;;;;;;;;;;;14.00;93.80;;;;;;4314829;33;42602;-79
2021/09/29 08:15:30;;;;;;;;;;;14.00;93.80;;;;;;4316294;33;43885;-80
2021/09/29 08:17:58;;;;;;;;;;;14.00;93.80;;;;;;4315690;33;42672;-79
2021/09/29 08:20:27;;;;;;;;;;;14.00;93.80;;;;;;4315585;33;42730;-79
2021/09/29 08:23:04;;;;;;;;;;;14.00;93.80;;;;;;4316173;33;43516;-80
2021/09/29 08:28:13;;;;;;;;;;;14.00;93.80;;;;;;4315706;33;43607;-80
2021/09/29 08:36:52;;;;;;;;;;;14.00;93.70;;;;;;4315885;33;43061;-80
2021/09/29 08:39:03;;;;;;;;;;;14.00;93.70;;;;;;4311882;33;44024;-80
2021/09/29 08:42:21;;;;;;;;;;;14.00;93.70;;;;;;4316009;33;42599;-81
2021/09/29 08:44:43;;;;;;;;;;;14.00;93.70;;;;;;4309838;33;43003;-81
2021/09/29 08:47:18;;;;;;;;;;;14.00;93.70;;;;;;4302367;33;43321;-80
2021/09/29 09:16:58;;;;;;;;;;;13.90;94.00;;;;;;4320601;33;44204;-81
2021/09/29 09:19:26;;;;;;;;;;;13.90;93.90;;;;;;4320084;33;44282;-81
2021/09/29 09:21:55;;;;;;;;;;;13.90;93.90;;;;;;4320561;33;44284;-81
2021/09/29 09:24:23;;;;;;;;;;;14.00;93.90;;;;;;4307376;33;44886;-82
2021/09/29 09:27:08;;;;;;;;;;;13.90;93.90;;;;;;4306901;33;42787;-82
2021/09/29 09:29:45;;;;;;;;;;;13.90;93.90;;;;;;4320220;33;44472;-81
2021/09/29 09:32:13;;;;;;;;;;;13.90;94.00;;;;;;4320164;33;44530;-81
2021/09/29 09:34:40;;;;;;;;;;;13.90;94.00;;;;;;4320469;33;43402;-81
2021/09/29 09:37:09;;;;;;;;;;;13.90;94.00;;;;;;4307209;33;44248;-81
2021/09/29 09:39:36;;;;;;;;;;;14.00;94.00;;;;;;4319868;33;20002;-82
2021/09/29 09:42:03;;;;;;;;;;;14.00;94.00;;;;;;4320313;33;42975;-82
2021/09/29 09:44:32;;;;;;;;;;;14.00;94.00;;;;;;4319991;33;44009;-82
2021/09/29 09:47:08;;;;;;;;;;;14.00;94.00;;;;;;4307044;33;44949;-82
2021/09/29 09:49:49;;;;;;;;;;;14.00;94.00;;;;;;4307413;33;44275;-82
2021/09/29 09:52:33;;;;;;;;;;;14.00;94.00;;;;;;4319262;33;43931;-82
2021/09/29 09:55:05;;;;;;;;;;;14.00;94.00;;;;;;4320079;33;43761;-82
2021/09/29 09:57:34;;;;;;;;;;;14.10;94.00;;;;;;4320591;33;44250;-82
2021/09/29 10:00:04;;;;;;;;;;;14.10;94.00;;;;;;4320249;33;42285;-81
2021/09/29 10:02:38;;;;;;;;;;;14.10;94.00;;;;;;4303968;33;45165;-81
2021/09/29 10:05:06;;;;;;;;;;;14.10;94.00;;;;;;4316913;33;42289;-81
2021/09/29 10:07:33;;;;;;;;;;;14.10;94.00;;;;;;4316830;33;45656;-82
2021/09/29 10:10:05;;;;;;;;;;;14.20;94.10;;;;;;4317188;33;19999;-81
2021/09/29 10:24:11;;;;;;;;;;;14.20;94.10;;;;;;4317333;33;42900;-82
2021/09/29 10:27:03;;;;;;;;;;;14.20;94.00;;;;;;4306535;33;20010;-81
2021/09/29 10:29:40;;;;;;;;;;;14.10;93.90;;;;;;4316594;33;43147;-82
2021/09/29 10:32:20;;;;;;;;;;;14.20;93.90;;;;;;4317122;33;23705;-83
2021/09/29 10:43:29;;;;;;;;;;;13.90;93.70;;;;;;4318574;33;20006;-82
2021/09/29 10:49:19;;;;;;;;;;;13.90;93.80;;;;;;4300006;33;44516;-82
2021/09/29 11:09:31;;;;;;;;;;;14.20;93.80;;;;;;4299584;33;43836;-83
2021/09/29 11:33:52;;;;;;;;;;;14.30;93.50;;;;;;4316722;33;45689;-85
2021/09/29 12:09:09;;;;;;;;;;;14.80;92.70;;;;;;4316409;33;44185;-85
2021/09/29 12:14:14;;;;;;;;;;;14.80;92.50;;;;;;4316989;33;45916;-85
2021/09/29 12:16:42;;;;;;;;;;;14.80;91.90;;;;;;4315906;33;42548;-85
2021/09/29 12:19:11;;;;;;;;;;;14.80;92.20;;;;;;4315886;33;41902;-84
2021/09/29 12:21:52;;;;;;;;;;;14.80;92.30;;;;;;4316070;33;42975;-83
2021/09/29 12:24:32;;;;;;;;;;;14.90;92.20;;;;;;4302536;33;45210;-84
2021/09/29 12:27:01;;;;;;;;;;;14.90;92.10;;;;;;4302754;33;42897;-84
2021/09/29 12:32:33;;;;;;;;;;;15.00;92.20;;;;;;4316072;33;42623;-84
2021/09/29 12:35:06;;;;;;;;;;;15.00;92.20;;;;;;4315644;33;44677;-84
2021/09/29 12:37:33;;;;;;;;;;;15.10;92.10;;;;;;4316054;33;43796;-84
2021/09/29 12:40:01;;;;;;;;;;;15.10;92.00;;;;;;4315676;33;43014;-85
2021/09/29 12:42:35;;;;;;;;;;;15.20;92.00;;;;;;4303229;33;43335;-84
2021/09/29 12:45:03;;;;;;;;;;;15.20;91.90;;;;;;4302583;33;45847;-84
2021/09/29 12:50:15;;;;;;;;;;;15.20;91.80;;;;;;4315634;33;43354;-84
2021/09/29 12:52:48;;;;;;;;;;;15.20;91.80;;;;;;4316038;33;43522;-83
2021/09/29 12:55:30;;;;;;;;;;;15.20;91.80;;;;;;4314768;33;43922;-83
2021/09/29 12:58:00;;;;;;;;;;;15.10;91.60;;;;;;4302849;33;44888;-84
2021/09/29 13:00:27;;;;;;;;;;;15.10;91.60;;;;;;4315301;33;44753;-85
2021/09/29 13:02:54;;;;;;;;;;;15.10;91.60;;;;;;4314082;33;42881;-83
2021/09/29 13:05:21;;;;;;;;;;;15.10;91.60;;;;;;4302612;33;44027;-84
2021/09/29 13:07:49;;;;;;;;;;;15.10;91.50;;;;;;4315605;33;44042;-83
2021/09/29 13:10:19;;;;;;;;;;;15.10;91.50;;;;;;4315191;33;44357;-84
2021/09/29 13:12:47;;;;;;;;;;;15.10;91.50;;;;;;4303316;33;20002;-85
2021/09/29 13:15:14;;;;;;;;;;;15.10;91.50;;;;;;4302771;33;43195;-84
2021/09/29 13:17:46;;;;;;;;;;;15.00;91.50;;;;;;4302038;33;43075;-85
2021/09/29 13:20:21;;;;;;;;;;;15.00;91.50;;;;;;4315862;33;44183;-84
2021/09/29 13:22:55;;;;;;;;;;;15.00;91.60;;;;;;4315739;33;44172;-84
2021/09/29 13:36:49;;;;;;;;;;;15.00;91.50;;;;;;4316811;33;44068;-84
2021/09/29 13:39:17;;;;;;;;;;;15.00;91.60;;;;;;4318320;33;44066;-81
2021/09/29 13:41:46;;;;;;;;;;;15.10;91.70;;;;;;4318452;33;43204;-81
2021/09/29 13:44:13;;;;;;;;;;;15.10;91.70;;;;;;4318545;33;19997;-82
2021/09/29 13:46:40;;;;;;;;;;;15.10;91.80;;;;;;4318242;33;43359;-82
2021/09/29 13:49:09;;;;;;;;;;;15.10;91.80;;;;;;4304946;33;44262;-82
2021/09/29 13:51:37;;;;;;;;;;;15.10;91.80;;;;;;4317064;33;45553;-80
2021/09/29 13:54:09;;;;;;;;;;;15.20;91.70;;;;;;4316932;33;44011;-82
2021/09/29 13:56:55;;;;;;;;;;;15.20;91.60;;;;;;4316737;33;44111;-82
2021/09/29 14:28:51;;;;;;;;;;;15.40;91.40;;;;;;4317731;33;43657;-82
2021/09/29 14:31:31;;;;;;;;;;;15.40;91.40;;;;;;4304837;33;45380;-83
2021/09/29 14:33:58;;;;;;;;;;;15.50;91.40;;;;;;4316603;33;45320;-82
2021/09/29 14:36:25;;;;;;;;;;;15.50;91.40;;;;;;4316311;33;43729;-82
2021/09/29 14:38:53;;;;;;;;;;;15.60;91.30;;;;;;4304547;33;43993;-81
2021/09/29 14:41:20;;;;;;;;;;;15.50;91.20;;;;;;4304137;33;43950;-82
2021/09/29 14:43:47;;;;;;;;;;;15.60;91.10;;;;;;4316289;33;44480;-83
2021/09/29 14:46:17;;;;;;;;;;;15.60;91.00;;;;;;4318050;33;20010;-83
2021/09/29 14:48:52;;;;;;;;;;;15.60;91.00;;;;;;4315829;33;44564;-82
2021/09/29 14:51:39;;;;;;;;;;;15.60;90.90;;;;;;4316692;33;42650;-82
2021/09/29 14:54:10;;;;;;;;;;;15.60;90.90;;;;;;4291235;33;42953;-81
2021/09/29 14:56:38;;;;;;;;;;;15.60;90.90;;;;;;4315794;33;44203;-82
2021/09/29 14:59:07;;;;;;;;;;;15.60;90.90;;;;;;4304037;33;42918;-82
2021/09/29 15:01:52;;;;;;;;;;;15.60;90.90;;;;;;4318264;33;20035;-82
2021/09/29 15:04:32;;;;;;;;;;;15.60;90.80;;;;;;4303935;33;43594;-83
2021/09/29 15:07:01;;;;;;;;;;;15.60;90.80;;;;;;4316826;33;45683;-82
2021/09/29 15:09:32;;;;;;;;;;;15.60;90.80;;;;;;4303857;33;43783;-82
2021/09/29 15:11:59;;;;;;;;;;;15.60;90.50;;;;;;4316546;33;42949;-83
2021/09/29 15:18:19;;;;;;;;;;;15.50;90.60;;;;;;4285766;33;43278;-83
2021/09/29 15:21:02;;;;;;;;;;;15.50;90.50;;;;;;4311071;33;19998;-84
2021/09/29 15:48:17;;;;;;;;;;;15.60;90.00;;;;;;4316268;33;42940;-83
2021/09/29 15:50:57;;;;;;;;;;;15.60;90.00;;;;;;4315505;33;43698;-82
2021/09/29 15:53:57;;;;;;;;;;;15.70;90.00;;;;;;4303618;33;44265;-79
2021/09/29 15:59:24;;;;;;;;;;;15.60;89.70;;;;;;4310315;33;44207;-81
2021/09/29 16:02:04;;;;;;;;;;;15.70;90.20;;;;;;4316230;33;42705;-81
2021/09/29 16:13:00;;;;;;;;;;;15.70;89.40;;;;;;4315757;33;42859;-80
2021/09/29 16:21:31;;;;;;;;;;;15.60;89.10;;;;;;4315782;33;43576;-80
2021/09/29 16:32:22;;;;;;;;;;;15.60;88.50;;;;;;4315807;33;44344;-79
2021/09/29 16:35:05;;;;;;;;;;;15.60;88.50;;;;;;4303125;33;44198;-80
2021/09/29 16:37:32;;;;;;;;;;;15.60;88.50;;;;;;4315630;33;43800;-79
2021/09/29 16:39:59;;;;;;;;;;;15.50;88.20;;;;;;4315892;33;42825;-80
2021/09/29 16:42:27;;;;;;;;;;;15.50;88.30;;;;;;4315690;33;44183;-79
2021/09/29 16:45:00;;;;;;;;;;;15.50;88.20;;;;;;4315599;33;43708;-79
2021/09/29 16:47:31;;;;;;;;;;;15.50;88.50;;;;;;4314539;33;44161;-79
2021/09/29 16:49:58;;;;;;;;;;;15.50;88.20;;;;;;4315419;33;43282;-79
2021/09/29 16:52:38;;;;;;;;;;;15.50;87.80;;;;;;4314758;33;43593;-80
2021/09/29 16:55:18;;;;;;;;;;;15.50;87.70;;;;;;4314412;33;42657;-80
2021/09/29 16:57:48;;;;;;;;;;;15.50;87.70;;;;;;4315412;33;43371;-81
2021/09/29 17:00:32;;;;;;;;;;;15.50;87.50;;;;;;4316004;33;44606;-80
2021/09/29 17:03:03;;;;;;;;;;;15.40;87.20;;;;;;4315472;33;44271;-79
2021/09/29 17:05:39;;;;;;;;;;;15.40;87.50;;;;;;4314693;33;45600;-79
2021/09/29 17:08:17;;;;;;;;;;;15.40;87.50;;;;;;4302469;33;43114;-79
2021/09/29 17:10:47;;;;;;;;;;;15.30;87.50;;;;;;4315840;33;43333;-80
2021/09/29 17:13:22;;;;;;;;;;;15.30;87.10;;;;;;4305396;33;44212;-80
2021/09/29 17:16:01;;;;;;;;;;;15.30;87.00;;;;;;4318783;33;45742;-79
2021/09/29 17:18:34;;;;;;;;;;;15.30;86.70;;;;;;4305445;33;36616;-80
2021/09/29 17:21:07;;;;;;;;;;;15.30;86.80;;;;;;4318678;33;43035;-80
2021/09/29 17:23:45;;;;;;;;;;;15.30;86.70;;;;;;4318640;33;44838;-80
2021/09/29 17:26:13;;;;;;;;;;;15.30;86.30;;;;;;4305338;33;44251;-81
2021/09/29 17:28:54;;;;;;;;;;;15.30;86.00;;;;;;4305067;33;44820;-80
2021/09/29 17:31:32;;;;;;;;;;;15.30;85.70;;;;;;4305477;33;43157;-80
2021/09/29 17:34:14;;;;;;;;;;;15.30;85.70;;;;;;4305300;33;44247;-79
2021/09/29 17:37:04;;;;;;;;;;;15.30;85.60;;;;;;4305213;33;43901;-79
2021/09/29 17:52:11;;;;;;;;;;;15.20;85.30;;;;;;4318168;33;45539;-79
2021/09/29 17:53:58;;;;;;;;;;;15.20;85.00;;;;;;4318288;33;45965;-80
2021/09/29 17:56:25;;;;;;;;;;;15.20;85.10;;;;;;4304663;33;43909;-81
2021/09/29 17:59:03;;;;;;;;;;;15.20;85.10;;;;;;4316622;33;44037;-79
2021/09/29 18:01:44;;;;;;;;;;;15.20;84.70;;;;;;4318012;33;44761;-79
2021/09/29 18:04:23;;;;;;;;;;;15.20;84.60;;;;;;4303813;33;45312;-79
2021/09/29 18:09:40;;;;;;;;;;;15.20;84.10;;;;;;4318094;33;43225;-80
2021/09/29 18:12:18;;;;;;;;;;;15.20;84.10;;;;;;4317838;33;44215;-80
2021/09/29 18:14:56;;;;;;;;;;;15.20;84.10;;;;;;4317938;33;43842;-80
2021/09/29 18:17:34;;;;;;;;;;;15.20;84.10;;;;;;4304704;33;42696;-79
2021/09/29 18:20:10;;;;;;;;;;;15.20;84.10;;;;;;4304347;33;44111;-80
2021/09/29 18:22:48;;;;;;;;;;;15.20;84.80;;;;;;4304433;33;43339;-80
2021/09/29 18:25:19;;;;;;;;;;;15.20;83.90;;;;;;4304894;33;44194;-81
2021/09/29 18:27:57;;;;;;;;;;;15.10;83.90;;;;;;4305549;33;45109;-80
2021/09/29 18:30:36;;;;;;;;;;;15.20;83.80;;;;;;4304178;33;42276;-79
2021/09/29 18:33:14;;;;;;;;;;;15.10;83.70;;;;;;4317232;33;43253;-80
2021/09/29 18:35:53;;;;;;;;;;;15.10;83.70;;;;;;4317730;33;44007;-80
2021/09/29 18:38:31;;;;;;;;;;;15.10;83.60;;;;;;4317568;33;44907;-79
2021/09/29 18:41:29;;;;;;;;;;;15.10;83.60;;;;;;4317358;33;46786;-80
2021/09/29 18:44:08;;;;;;;;;;;15.10;83.60;;;;;;4304043;33;43261;-80
2021/09/29 18:46:50;;;;;;;;;;;15.00;83.50;;;;;;4317421;33;44705;-79
2021/09/29 18:49:28;;;;;;;;;;;15.00;83.40;;;;;;4317247;33;44084;-79